Time;durP1;ratioP1;P1;durP2;ratioP2;P2;SDS_P1;SDS_P2;PMS_P1;PMS_P2;Temp;Humidity;BMP_temperature;BMP_pressure;BME280_temperature;BME280_humidity;BME280_pressure;Samples;Min_cycle;Max_cycle;Signal;HPM_P1;HPM_P2
2022/02/22 00:02:07;;;;;;;19.02;11.88;;;;;;;9.12;68.39;92237.72;5047196;28;20047;-42
2022/02/22 00:04:36;;;;;;;18.02;10.98;;;;;;;9.04;69.00;92242.59;5047070;28;20418;-42
2022/02/22 00:07:03;;;;;;;16.83;11.45;;;;;;;9.03;69.16;92232.88;5047389;28;20417;-42
2022/02/22 00:09:29;;;;;;;15.57;11.32;;;;;;;9.02;68.86;92223.88;5045921;28;20052;-42
2022/02/22 00:11:54;;;;;;;18.83;11.13;;;;;;;9.10;68.69;92234.78;5046947;28;20060;-42
2022/02/22 00:14:20;;;;;;;21.98;11.23;;;;;;;9.11;68.06;92226.00;5046800;28;20033;-41
2022/02/22 00:16:45;;;;;;;16.85;11.88;;;;;;;9.07;68.42;92222.88;5047113;28;20029;-42
2022/02/22 00:19:11;;;;;;;18.25;11.80;;;;;;;9.01;68.66;92219.66;5047026;28;20035;-41
2022/02/22 00:21:36;;;;;;;14.82;9.98;;;;;;;8.98;68.91;92204.31;5047255;28;20021;-41
2022/02/22 00:24:01;;;;;;;20.30;11.57;;;;;;;8.84;68.96;92219.69;5046942;28;20048;-41
2022/02/22 00:26:27;;;;;;;14.52;10.57;;;;;;;8.72;69.61;92206.97;5046696;28;20056;-41
2022/02/22 00:28:52;;;;;;;18.00;11.23;;;;;;;8.70;69.64;92206.81;5046822;28;20463;-41
2022/02/22 00:31:18;;;;;;;19.08;11.70;;;;;;;8.71;69.60;92206.25;5047142;28;20028;-40
2022/02/22 00:33:44;;;;;;;17.25;12.20;;;;;;;8.56;70.27;92203.66;5046786;28;20025;-41
2022/02/22 00:36:10;;;;;;;16.00;12.07;;;;;;;8.57;70.42;92199.63;5046960;28;20021;-41
2022/02/22 00:38:35;;;;;;;15.98;11.57;;;;;;;8.50;70.81;92192.16;5047056;28;20037;-41
2022/02/22 00:41:02;;;;;;;17.52;12.60;;;;;;;8.43;70.93;92203.97;5046341;27;20168;-41
2022/02/22 00:43:29;;;;;;;15.88;12.25;;;;;;;8.48;70.80;92203.00;5046768;28;20112;-41
2022/02/22 00:45:54;;;;;;;17.38;12.50;;;;;;;8.44;71.00;92199.94;5046895;28;20040;-41
2022/02/22 00:48:20;;;;;;;15.32;10.63;;;;;;;8.49;70.85;92196.19;5046638;28;20025;-41
2022/02/22 00:50:46;;;;;;;19.35;12.25;;;;;;;8.37;71.12;92189.72;5046595;28;20433;-41
2022/02/22 00:53:11;;;;;;;17.70;12.52;;;;;;;8.31;71.62;92205.75;5046524;28;20057;-40
2022/02/22 00:55:36;;;;;;;19.42;13.75;;;;;;;8.34;71.42;92201.84;5046893;28;20021;-41
2022/02/22 00:58:02;;;;;;;22.35;13.70;;;;;;;8.36;71.02;92197.25;5046445;28;20028;-41
2022/02/22 01:00:27;;;;;;;21.42;14.38;;;;;;;8.25;71.24;92208.72;5047734;28;20107;-42
2022/02/22 01:02:53;;;;;;;21.42;14.68;;;;;;;8.22;70.76;92196.06;5050238;28;20033;-41
2022/02/22 01:05:18;;;;;;;25.98;13.43;;;;;;;8.17;71.73;92193.53;5049554;28;20516;-41
2022/02/22 01:07:44;;;;;;;26.85;15.30;;;;;;;8.14;72.09;92205.69;5049695;28;20637;-41
2022/02/22 01:10:10;;;;;;;16.92;12.80;;;;;;;8.14;71.99;92200.19;5050101;28;20482;-40
2022/02/22 01:12:35;;;;;;;18.75;13.25;;;;;;;8.24;71.56;92192.75;5050219;28;20405;-40
2022/02/22 01:15:01;;;;;;;20.05;12.90;;;;;;;8.31;71.48;92192.72;5049732;28;20053;-41
2022/02/22 01:17:26;;;;;;;16.42;11.90;;;;;;;8.19;71.98;92201.94;5044637;28;20025;-41
2022/02/22 01:19:52;;;;;;;20.15;12.25;;;;;;;8.09;72.42;92198.38;5046539;28;20482;-42
2022/02/22 01:22:17;;;;;;;18.02;12.90;;;;;;;8.08;72.21;92205.16;5049889;28;20020;-42
2022/02/22 01:24:43;;;;;;;16.95;12.43;;;;;;;7.86;72.74;92173.13;5049497;28;20032;-41
2022/02/22 01:27:08;;;;;;;19.63;12.60;;;;;;;8.08;72.72;92186.66;5049423;28;20052;-41
2022/02/22 01:29:34;;;;;;;26.67;14.25;;;;;;;8.11;72.10;92188.28;5049781;28;20021;-41
2022/02/22 01:31:59;;;;;;;19.27;12.68;;;;;;;8.16;72.10;92181.09;5048531;28;20104;-40
2022/02/22 01:34:25;;;;;;;50.20;31.55;;;;;;;7.99;72.35;92173.53;5049373;28;20033;-41
2022/02/22 01:36:51;;;;;;;38.33;25.10;;;;;;;8.20;71.96;92195.19;5049383;28;20486;-41
2022/02/22 01:39:16;;;;;;;40.85;24.63;;;;;;;8.24;71.64;92190.72;5049725;28;20049;-40
2022/02/22 01:41:46;;;;;;;36.20;23.98;;;;;;;8.20;71.54;92189.69;5049040;27;20031;-40
2022/02/22 01:44:13;;;;;;;35.55;20.00;;;;;;;8.30;70.97;92194.00;5049313;28;20052;-40
2022/02/22 01:46:38;;;;;;;27.48;17.70;;;;;;;8.31;70.31;92192.00;5049575;28;20017;-40
2022/02/22 01:49:04;;;;;;;24.80;16.00;;;;;;;7.96;71.68;92187.69;5049566;28;20045;-40
2022/02/22 01:51:29;;;;;;;24.10;15.93;;;;;;;8.16;70.93;92190.09;5049242;28;20029;-40
2022/02/22 01:53:54;;;;;;;30.80;17.70;;;;;;;8.18;70.35;92182.00;5049485;28;20112;-41
2022/02/22 01:56:21;;;;;;;28.77;17.27;;;;;;;7.77;71.71;92173.72;5048969;28;20108;-40
2022/02/22 01:58:47;;;;;;;24.67;16.00;;;;;;;7.74;72.37;92177.59;5049047;28;20536;-41
2022/02/22 02:01:12;;;;;;;29.10;15.60;;;;;;;7.90;70.96;92178.94;5047848;28;20048;-41
2022/02/22 02:03:38;;;;;;;21.00;14.23;;;;;;;7.90;70.46;92181.69;5048993;28;20100;-41
2022/02/22 02:06:04;;;;;;;22.90;14.50;;;;;;;7.88;70.92;92181.53;5048890;28;20021;-42
2022/02/22 02:08:29;;;;;;;20.65;14.10;;;;;;;7.78;71.68;92189.66;5048049;28;20073;-41
2022/02/22 02:10:55;;;;;;;19.15;12.85;;;;;;;7.87;71.46;92191.78;5049186;28;20041;-41
2022/02/22 02:13:21;;;;;;;19.13;13.32;;;;;;;7.53;73.67;92192.41;5048289;28;20410;-41
2022/02/22 02:15:46;;;;;;;18.17;13.73;;;;;;;7.35;74.74;92190.84;5048760;28;20513;-41
2022/02/22 02:18:12;;;;;;;18.92;13.50;;;;;;;7.55;74.44;92189.81;5049123;28;20033;-41
2022/02/22 02:20:37;;;;;;;18.33;12.77;;;;;;;7.40;74.84;92197.44;5049026;28;20028;-40
2022/02/22 02:23:03;;;;;;;17.42;13.70;;;;;;;7.31;75.93;92187.03;5048953;28;20406;-41
2022/02/22 02:25:28;;;;;;;21.70;15.38;;;;;;;7.30;76.24;92197.28;5047409;28;20062;-41
2022/02/22 02:27:53;;;;;;;31.15;16.25;;;;;;;7.46;75.84;92197.94;5048516;28;20045;-41
2022/02/22 02:30:19;;;;;;;22.25;14.35;;;;;;;7.36;75.08;92188.84;5048871;28;20028;-41
2022/02/22 02:32:45;;;;;;;29.98;20.42;;;;;;;7.13;75.50;92188.22;5048896;28;20021;-41
2022/02/22 02:35:10;;;;;;;19.17;13.63;;;;;;;7.32;74.78;92183.72;5048475;28;20097;-41
2022/02/22 02:37:37;;;;;;;24.95;13.23;;;;;;;7.50;74.02;92182.53;5048564;28;20024;-42
2022/02/22 02:40:04;;;;;;;25.73;13.32;;;;;;;7.25;74.64;92195.50;5048323;27;20032;-41
2022/02/22 02:42:29;;;;;;;18.25;12.68;;;;;;;7.56;73.29;92191.28;5048726;28;20409;-41
2022/02/22 02:44:55;;;;;;;19.02;13.10;;;;;;;7.65;72.41;92193.41;5048306;28;20021;-42
2022/02/22 02:47:20;;;;;;;20.83;10.32;;;;;;;7.60;72.47;92185.41;5048285;28;20021;-40
2022/02/22 02:49:46;;;;;;;12.18;10.45;;;;;;;7.54;71.95;92174.63;5047766;28;20024;-42
2022/02/22 02:52:12;;;;;;;15.55;11.25;;;;;;;7.51;72.28;92186.00;5047650;28;20031;-41
2022/02/22 02:54:38;;;;;;;15.98;10.30;;;;;;;7.56;72.30;92190.53;5048322;28;20017;-40
2022/02/22 02:57:03;;;;;;;22.00;10.98;;;;;;;7.49;72.50;92191.34;5048483;28;20021;-40
2022/02/22 02:59:29;;;;;;;19.10;11.40;;;;;;;7.45;72.40;92191.69;5048192;28;20033;-41
2022/02/22 03:01:54;;;;;;;23.98;13.77;;;;;;;7.13;73.56;92193.72;5048251;28;20032;-41
2022/02/22 03:04:20;;;;;;;19.58;13.45;;;;;;;7.28;73.79;92205.34;5048048;28;20028;-41
2022/02/22 03:06:45;;;;;;;22.83;12.05;;;;;;;7.22;73.81;92180.13;5048328;28;20082;-41
2022/02/22 03:09:12;;;;;;;15.80;11.52;;;;;;;7.16;74.90;92182.38;5048270;28;20092;-42
2022/02/22 03:11:37;;;;;;;23.15;12.30;;;;;;;7.43;74.25;92194.28;5048008;28;20509;-41
2022/02/22 03:14:03;;;;;;;14.95;11.18;;;;;;;7.44;74.14;92184.03;5048234;28;20027;-41
2022/02/22 03:16:28;;;;;;;16.98;11.75;;;;;;;7.30;74.83;92191.06;5048136;28;20492;-41
2022/02/22 03:18:54;;;;;;;15.68;11.48;;;;;;;7.34;74.27;92192.13;5048185;28;20455;-41
2022/02/22 03:21:19;;;;;;;19.20;13.05;;;;;;;7.48;73.86;92201.59;5047789;28;20025;-41
2022/02/22 03:23:45;;;;;;;20.67;14.52;;;;;;;7.31;73.25;92196.00;5047952;28;20078;-42
2022/02/22 03:26:11;;;;;;;18.20;13.70;;;;;;;6.98;74.41;92199.28;5047548;28;20119;-41
2022/02/22 03:28:37;;;;;;;26.48;13.32;;;;;;;7.22;74.35;92202.09;5048087;28;20075;-41
2022/02/22 03:31:03;;;;;;;21.27;13.88;;;;;;;7.06;74.79;92195.22;5047931;28;20035;-42
2022/02/22 03:33:30;;;;;;;17.60;13.05;;;;;;;7.10;75.38;92194.84;5047930;28;20025;-41
2022/02/22 03:35:55;;;;;;;20.50;12.45;;;;;;;7.22;75.09;92196.59;5047915;28;20021;-41
2022/02/22 03:38:20;;;;;;;21.60;14.77;;;;;;;7.39;74.55;92193.94;5047936;28;20391;-42
2022/02/22 03:40:46;;;;;;;29.40;17.85;;;;;;;7.41;74.31;92199.59;5047177;27;20021;-41
2022/02/22 03:43:12;;;;;;;20.88;14.75;;;;;;;7.57;72.82;92197.50;5047803;28;20021;-41
2022/02/22 03:45:37;;;;;;;18.90;14.35;;;;;;;7.64;72.76;92202.94;5047707;28;20013;-41
2022/02/22 03:48:03;;;;;;;20.73;14.07;;;;;;;7.69;71.97;92184.06;5047317;28;20084;-41
2022/02/22 03:50:29;;;;;;;19.80;13.25;;;;;;;7.58;72.68;92182.47;5047756;28;20032;-41
2022/02/22 03:52:54;;;;;;;19.58;13.77;;;;;;;7.54;73.29;92182.88;5047413;28;20425;-41
2022/02/22 03:55:22;;;;;;;25.98;15.35;;;;;;;7.67;72.94;92189.38;5047621;28;20020;-41
2022/02/22 03:57:47;;;;;;;26.63;16.73;;;;;;;7.65;72.44;92184.44;5047312;28;20021;-41
2022/02/22 04:00:18;;;;;;;23.58;16.90;;;;;;;7.62;71.88;92194.53;5047213;28;20027;-40
2022/02/22 04:02:45;;;;;;;40.08;24.73;;;;;;;7.55;71.84;92184.34;5047596;28;20033;-41
2022/02/22 04:05:10;;;;;;;30.42;19.90;;;;;;;7.63;71.38;92185.00;5047413;28;20020;-41
2022/02/22 04:07:36;;;;;;;30.33;18.92;;;;;;;7.72;70.79;92185.66;5046354;28;20025;-41
2022/02/22 04:10:03;;;;;;;25.98;16.42;;;;;;;7.78;71.16;92180.66;5047247;28;20028;-41
2022/02/22 04:12:28;;;;;;;27.10;16.48;;;;;;;7.83;71.18;92190.72;5047137;28;20017;-40
2022/02/22 04:14:54;;;;;;;22.10;15.63;;;;;;;7.78;70.76;92181.41;5047420;28;20047;-40
2022/02/22 04:17:19;;;;;;;22.40;15.98;;;;;;;7.57;71.56;92178.28;5047381;28;20637;-41
2022/02/22 04:19:45;;;;;;;23.02;16.02;;;;;;;7.48;71.87;92189.88;5047039;28;20021;-41
2022/02/22 04:22:10;;;;;;;22.02;14.25;;;;;;;7.28;72.30;92180.66;5046932;28;20024;-40
2022/02/22 04:24:36;;;;;;;15.00;11.75;;;;;;;7.41;71.68;92187.88;5047289;28;20077;-41
2022/02/22 04:27:03;;;;;;;16.40;10.70;;;;;;;7.49;71.20;92186.53;5046626;28;20549;-41
2022/02/22 04:29:28;;;;;;;19.27;12.70;;;;;;;7.60;71.14;92185.41;5047206;28;20027;-40
2022/02/22 04:31:53;;;;;;;20.95;12.98;;;;;;;7.62;71.17;92182.81;5047184;28;20021;-41
2022/02/22 04:34:19;;;;;;;19.45;12.35;;;;;;;7.39;72.13;92184.97;5047100;28;20417;-41
2022/02/22 04:36:44;;;;;;;17.00;12.70;;;;;;;7.46;71.72;92182.19;5050305;28;20012;-41
2022/02/22 04:39:10;;;;;;;27.13;12.50;;;;;;;7.41;71.51;92185.88;5050595;28;20052;-42
2022/02/22 04:41:36;;;;;;;15.52;11.02;;;;;;;7.11;72.23;92174.34;5050309;27;20048;-41
2022/02/22 04:44:02;;;;;;;20.65;11.82;;;;;;;7.21;72.74;92189.66;5050389;28;20104;-42
2022/02/22 04:46:27;;;;;;;19.10;11.23;;;;;;;7.26;72.32;92193.47;5050195;28;20116;-41
2022/02/22 04:48:53;;;;;;;19.67;13.43;;;;;;;7.38;71.79;92187.00;5050442;28;20025;-41
2022/02/22 04:51:18;;;;;;;20.25;14.63;;;;;;;7.41;71.69;92202.34;5036313;28;20065;-41
2022/02/22 04:53:44;;;;;;;55.67;36.25;;;;;;;7.37;72.39;92207.50;5030442;28;20041;-41
2022/02/22 04:56:09;;;;;;;28.90;18.27;;;;;;;7.33;72.81;92203.69;5030200;28;20018;-41
2022/02/22 04:58:34;;;;;;;31.65;18.52;;;;;;;7.34;72.21;92211.34;5030113;28;20026;-41
2022/02/22 05:01:00;;;;;;;36.20;19.27;;;;;;;7.26;73.31;92213.41;5030054;28;20040;-41
2022/02/22 05:03:25;;;;;;;26.88;18.00;;;;;;;7.39;72.69;92221.41;5030092;28;20037;-41
2022/02/22 05:05:52;;;;;;;25.35;17.58;;;;;;;7.38;73.02;92225.44;5029831;28;20025;-41
2022/02/22 05:08:18;;;;;;;25.83;17.52;;;;;;;7.36;73.32;92238.28;5038223;28;20025;-42
2022/02/22 05:10:44;;;;;;;30.90;20.27;;;;;;;7.29;73.72;92244.53;5039827;28;20406;-41
2022/02/22 05:13:09;;;;;;;31.67;20.35;;;;;;;7.37;73.24;92243.19;5049825;28;20060;-40
2022/02/22 05:15:35;;;;;;;34.40;21.92;;;;;;;7.23;73.32;92235.78;5049750;28;20016;-41
2022/02/22 05:18:00;;;;;;;49.60;26.98;;;;;;;6.82;74.98;92237.75;5049719;28;20021;-41
2022/02/22 05:20:26;;;;;;;47.33;33.05;;;;;;;6.79;75.40;92251.84;5050046;28;20116;-41
2022/02/22 05:22:51;;;;;;;48.80;32.88;;;;;;;6.99;75.45;92258.38;5048958;28;20446;-41
2022/02/22 05:25:17;;;;;;;44.35;30.05;;;;;;;7.06;74.84;92250.09;5049134;28;20025;-41
2022/02/22 05:27:43;;;;;;;28.08;21.02;;;;;;;7.10;75.62;92260.72;5049438;28;20127;-41
2022/02/22 05:30:11;;;;;;;43.80;28.17;;;;;;;7.18;74.68;92245.66;5049861;28;20031;-41
2022/02/22 05:32:37;;;;;;;48.58;30.17;;;;;;;7.16;75.14;92261.22;5049939;28;20053;-41
2022/02/22 05:35:03;;;;;;;37.08;23.52;;;;;;;7.29;74.80;92269.97;5049746;28;20442;-42
2022/02/22 05:37:29;;;;;;;40.70;26.20;;;;;;;7.26;75.23;92273.06;5049784;28;20025;-41
2022/02/22 05:39:55;;;;;;;41.65;25.23;;;;;;;7.46;74.31;92274.81;5049195;27;20451;-41
2022/02/22 05:42:24;;;;;;;40.50;24.88;;;;;;;7.51;74.00;92277.34;5049299;28;20148;-41
2022/02/22 05:44:49;;;;;;;;;;;;;;;7.35;74.89;92281.47;5050169;28;20025;-42
2022/02/22 05:47:15;;;;;;;26.92;18.88;;;;;;;7.41;74.93;92286.72;5048124;28;19917;-41
2022/02/22 05:49:41;;;;;;;42.20;28.30;;;;;;;7.46;74.99;92288.56;5049501;28;20044;-41
2022/02/22 05:52:07;;;;;;;34.40;21.63;;;;;;;7.36;75.47;92288.41;5049243;28;20036;-41
2022/02/22 05:54:32;;;;;;;35.28;22.80;;;;;;;7.38;75.96;92288.59;5049519;28;20013;-41
2022/02/22 05:56:57;;;;;;;56.40;36.15;;;;;;;7.35;76.88;92294.47;5049393;28;20021;-41
2022/02/22 05:59:23;;;;;;;66.32;42.67;;;;;;;7.31;76.19;92296.84;5049385;28;20021;-41
2022/02/22 06:01:48;;;;;;;59.30;37.63;;;;;;;7.15;76.54;92304.41;5049126;28;20044;-41
2022/02/22 06:04:14;;;;;;;52.83;31.60;;;;;;;7.03;76.76;92300.63;5049330;28;20017;-41
2022/02/22 06:06:40;;;;;;;46.70;27.67;;;;;;;7.10;76.85;92296.41;5049188;28;20398;-41
2022/02/22 06:09:06;;;;;;;49.75;30.63;;;;;;;7.29;76.17;92300.16;5049268;28;20077;-41
2022/02/22 06:11:32;;;;;;;45.60;29.73;;;;;;;7.40;76.07;92291.53;5049194;28;20020;-41
2022/02/22 06:13:58;;;;;;;36.92;25.67;;;;;;;7.60;75.23;92292.53;5049150;28;20029;-41
2022/02/22 06:16:24;;;;;;;40.90;25.42;;;;;;;7.60;75.33;92282.25;5049186;28;20029;-41
2022/02/22 06:18:49;;;;;;;32.53;20.35;;;;;;;7.70;75.69;92292.63;5048812;28;20532;-41
2022/02/22 06:21:15;;;;;;;29.77;20.67;;;;;;;7.74;76.11;92298.47;5049075;28;20116;-41
2022/02/22 06:23:41;;;;;;;39.35;25.13;;;;;;;7.81;76.26;92303.19;5048996;28;20032;-41
2022/02/22 06:26:07;;;;;;;302.02;135.45;;;;;;;7.86;75.49;92302.25;5048769;28;20021;-41
2022/02/22 06:28:33;;;;;;;286.42;136.05;;;;;;;7.76;74.72;92301.38;5048657;28;20497;-41
2022/02/22 06:30:59;;;;;;;246.65;114.07;;;;;;;7.78;74.75;92310.53;5048888;28;20023;-41
2022/02/22 06:33:25;;;;;;;98.93;56.38;;;;;;;7.67;75.24;92313.00;5048577;28;20108;-41
2022/02/22 06:35:50;;;;;;;103.38;54.55;;;;;;;7.44;76.43;92315.84;5048509;28;20096;-41
2022/02/22 06:38:15;;;;;;;68.93;41.35;;;;;;;7.40;76.54;92310.75;5047681;28;20033;-41
2022/02/22 06:40:41;;;;;;;122.75;65.90;;;;;;;7.64;76.14;92318.28;5046332;28;20641;-41
2022/02/22 06:43:06;;;;;;;90.75;48.60;;;;;;;7.49;76.25;92318.38;5048464;28;20026;-41
2022/02/22 06:45:32;;;;;;;103.10;57.58;;;;;;;7.61;76.25;92318.69;5048366;28;20025;-41
2022/02/22 06:47:57;;;;;;;73.65;42.22;;;;;;;7.77;75.66;92328.31;5048351;28;20037;-41
2022/02/22 06:50:24;;;;;;;58.95;36.47;;;;;;;7.66;76.28;92323.25;5048607;28;20021;-41
2022/02/22 06:52:51;;;;;;;66.00;41.30;;;;;;;7.72;76.48;92328.53;5048259;28;20116;-41
2022/02/22 06:55:17;;;;;;;139.80;77.07;;;;;;;7.75;76.55;92322.66;5048578;28;20032;-41
2022/02/22 06:57:46;;;;;;;118.32;72.13;;;;;;;7.97;75.86;92335.53;5047991;28;20021;-41
2022/02/22 07:00:12;;;;;;;75.72;49.42;;;;;;;8.13;75.23;92330.66;5048518;28;20025;-41
2022/02/22 07:02:39;;;;;;;55.13;33.55;;;;;;;8.25;75.09;92334.44;5048190;28;20104;-41
2022/02/22 07:05:06;;;;;;;38.80;25.75;;;;;;;8.31;74.68;92330.22;5047933;28;20070;-41
2022/02/22 07:07:31;;;;;;;32.95;24.17;;;;;;;8.25;74.86;92326.19;5048047;28;20036;-41
2022/02/22 07:09:57;;;;;;;31.63;22.33;;;;;;;8.21;75.92;92320.34;5048321;28;20025;-41
2022/02/22 07:12:22;;;;;;;25.10;16.25;;;;;;;8.17;76.62;92323.50;5048267;28;20482;-40
2022/02/22 07:14:48;;;;;;;24.75;17.67;;;;;;;8.08;77.39;92320.63;5048307;28;20522;-41
2022/02/22 07:17:13;;;;;;;23.30;15.10;;;;;;;8.05;78.30;92324.50;5047885;28;20497;-41
2022/02/22 07:19:38;;;;;;;19.00;13.95;;;;;;;8.23;78.07;92317.75;5047935;28;20089;-41
2022/02/22 07:22:04;;;;;;;20.48;15.35;;;;;;;8.34;77.68;92325.59;5048080;28;20025;-41
2022/02/22 07:24:30;;;;;;;28.20;15.38;;;;;;;8.48;77.58;92326.78;5047615;28;20592;-41
2022/02/22 07:26:56;;;;;;;17.98;12.73;;;;;;;8.58;77.06;92324.13;5047736;28;20128;-40
2022/02/22 07:29:22;;;;;;;19.77;13.85;;;;;;;8.61;76.84;92323.75;5047992;28;20061;-41
2022/02/22 07:31:47;;;;;;;22.77;14.32;;;;;;;8.71;76.78;92318.31;5048050;28;20417;-41
2022/02/22 07:34:12;;;;;;;19.25;13.32;;;;;;;8.84;76.01;92316.00;5047666;28;20410;-41
2022/02/22 07:36:39;;;;;;;20.83;13.90;;;;;;;9.05;75.84;92308.09;5047671;28;20024;-42
2022/02/22 07:39:05;;;;;;;23.67;16.92;;;;;;;9.34;74.40;92308.31;5047942;28;20021;-41
2022/02/22 07:41:31;;;;;;;18.65;13.63;;;;;;;9.60;73.46;92304.16;5047551;27;20554;-41
2022/02/22 07:43:57;;;;;;;18.95;13.05;;;;;;;9.81;72.33;92293.44;5047536;28;20090;-42
2022/02/22 07:46:22;;;;;;;14.43;11.40;;;;;;;10.33;70.88;92300.22;5047418;28;20029;-41
2022/02/22 07:48:49;;;;;;;17.10;12.02;;;;;;;10.89;68.08;92303.03;5032581;28;20084;-41
2022/02/22 07:51:16;;;;;;;16.58;12.00;;;;;;;11.27;67.00;92294.78;5025417;28;20419;-41
2022/02/22 07:53:43;;;;;;;11.40;9.35;;;;;;;11.69;64.87;92295.09;5025196;28;20036;-42
2022/02/22 07:56:09;;;;;;;14.60;10.40;;;;;;;11.81;62.98;92298.72;5025147;28;20025;-41
2022/02/22 07:58:34;;;;;;;14.32;11.40;;;;;;;11.84;62.82;92291.28;5025001;28;20064;-42
2022/02/22 08:01:00;;;;;;;16.23;12.00;;;;;;;12.46;61.47;92287.31;5028822;28;20127;-42
2022/02/22 08:03:25;;;;;;;14.50;11.25;;;;;;;12.66;61.19;92279.66;5034031;28;20040;-42
2022/02/22 08:05:51;;;;;;;12.13;10.27;;;;;;;13.85;58.71;92276.34;5025153;28;20456;-42
2022/02/22 08:08:16;;;;;;;10.65;8.70;;;;;;;14.75;54.21;92290.28;5025389;28;20491;-42
2022/02/22 08:10:41;;;;;;;8.98;7.35;;;;;;;15.31;51.30;92276.22;5024405;28;20025;-42
2022/02/22 08:13:07;;;;;;;8.43;7.18;;;;;;;16.05;48.23;92281.81;5039484;28;20494;-43
2022/02/22 08:15:32;;;;;;;8.18;7.38;;;;;;;16.68;46.45;92283.84;5044831;28;20736;-42
2022/02/22 08:17:58;;;;;;;9.23;8.25;;;;;;;16.59;46.24;92277.13;5045034;28;20037;-42
2022/02/22 08:20:23;;;;;;;11.20;8.80;;;;;;;17.79;44.75;92275.56;5044852;28;20032;-42
2022/02/22 08:22:50;;;;;;;8.57;7.03;;;;;;;19.51;41.16;92277.22;5044983;28;20037;-42
2022/02/22 08:25:16;;;;;;;8.52;6.45;;;;;;;20.06;36.80;92282.28;5044584;28;20218;-42
2022/02/22 08:27:42;;;;;;;11.02;8.57;;;;;;;20.66;37.31;92273.47;5036062;28;20053;-42
2022/02/22 08:30:08;;;;;;;9.13;7.10;;;;;;;20.30;36.49;92277.69;5037528;28;20124;-42
2022/02/22 08:32:34;;;;;;;6.65;6.05;;;;;;;20.22;36.70;92285.78;5044538;28;20841;-40
2022/02/22 08:34:59;;;;;;;8.73;6.30;;;;;;;19.63;37.25;92302.94;5044697;28;20032;-42
2022/02/22 08:37:24;;;;;;;9.43;6.25;;;;;;;18.86;38.91;92298.81;5044761;28;20021;-42
2022/02/22 08:39:50;;;;;;;9.75;7.18;;;;;;;17.87;40.67;92267.59;5043284;27;20032;-41
2022/02/22 08:42:15;;;;;;;9.90;7.90;;;;;;;17.43;42.13;92296.81;5044678;28;20033;-41
2022/02/22 08:44:41;;;;;;;10.32;7.68;;;;;;;16.51;43.18;92289.91;5044570;28;20017;-42
2022/02/22 08:47:06;;;;;;;8.50;6.88;;;;;;;17.32;42.63;92292.06;5044239;28;20025;-42
2022/02/22 08:49:33;;;;;;;8.55;7.75;;;;;;;18.16;42.48;92301.13;5044142;28;20021;-42
2022/02/22 08:51:59;;;;;;;8.35;7.00;;;;;;;19.25;40.07;92306.16;5044286;28;20025;-42
2022/02/22 08:54:24;;;;;;;10.32;7.10;;;;;;;19.19;39.46;92306.59;5044429;28;20050;-42
2022/02/22 08:56:49;;;;;;;7.78;6.45;;;;;;;19.39;38.87;92304.72;5044391;28;20028;-42
2022/02/22 08:59:15;;;;;;;7.50;6.75;;;;;;;20.05;37.40;92309.59;5044435;28;20414;-42
2022/02/22 09:01:40;;;;;;;9.25;8.32;;;;;;;20.29;36.18;92307.78;5043161;28;20044;-42
2022/02/22 09:04:06;;;;;;;10.20;8.00;;;;;;;19.64;37.96;92309.97;5044490;28;20025;-41
2022/02/22 09:06:31;;;;;;;11.55;9.65;;;;;;;18.65;40.00;92316.03;5033632;28;20044;-41
2022/02/22 09:08:57;;;;;;;13.88;9.73;;;;;;;17.90;40.97;92319.41;5046234;28;20406;-41
2022/02/22 09:11:22;;;;;;;10.65;7.57;;;;;;;17.68;41.46;92316.25;5045089;28;20029;-42
2022/02/22 09:13:47;;;;;;;13.18;11.13;;;;;;;16.71;43.44;92326.50;5045298;28;20410;-41
2022/02/22 09:16:13;;;;;;;12.80;10.40;;;;;;;15.73;47.67;92331.53;5045034;28;20471;-42
2022/02/22 09:18:39;;;;;;;12.95;9.65;;;;;;;15.13;50.18;92342.63;5045685;28;20025;-41
2022/02/22 09:21:04;;;;;;;12.50;9.45;;;;;;;14.90;48.26;92344.69;5047077;28;20509;-41
2022/02/22 09:23:29;;;;;;;10.32;7.90;;;;;;;14.10;50.57;92345.94;5049937;28;20502;-41
2022/02/22 09:25:55;;;;;;;9.65;7.72;;;;;;;13.73;52.45;92353.28;5049487;28;20021;-41
2022/02/22 09:28:21;;;;;;;12.55;10.15;;;;;;;13.63;54.11;92339.47;5049462;28;20052;-41
2022/02/22 09:30:46;;;;;;;13.35;10.43;;;;;;;13.34;55.84;92361.13;5049664;28;20459;-41
2022/02/22 09:33:12;;;;;;;13.13;9.35;;;;;;;13.16;56.16;92355.09;5047738;28;20017;-41
2022/02/22 09:35:38;;;;;;;13.25;9.15;;;;;;;13.09;55.87;92363.59;5047573;28;20017;-41
2022/02/22 09:38:03;;;;;;;10.35;7.97;;;;;;;12.81;55.64;92363.13;5047535;28;20025;-41
2022/02/22 09:40:29;;;;;;;13.90;10.25;;;;;;;12.78;56.98;92367.06;5047325;27;20023;-41
2022/02/22 09:42:55;;;;;;;15.40;11.40;;;;;;;12.00;60.36;92380.94;5047888;28;20435;-41
2022/02/22 09:45:22;;;;;;;13.70;10.57;;;;;;;11.78;60.55;92382.84;5047826;28;20020;-41
2022/02/22 09:47:48;;;;;;;12.82;10.10;;;;;;;11.67;61.23;92393.75;5049401;28;20104;-41
2022/02/22 09:50:15;;;;;;;10.85;9.25;;;;;;;11.90;61.09;92386.47;5049194;28;20092;-41
2022/02/22 09:52:41;;;;;;;12.90;9.90;;;;;;;12.23;60.15;92372.91;5049265;28;20021;-41
2022/02/22 09:55:08;;;;;;;17.15;11.07;;;;;;;12.36;59.06;92382.78;5049171;27;20017;-42
2022/02/22 09:57:34;;;;;;;9.98;6.63;;;;;;;12.35;59.38;92381.31;5049224;28;20498;-41
2022/02/22 10:00:00;;;;;;;9.80;6.15;;;;;;;12.76;57.63;92372.47;5049144;28;20028;-41
2022/02/22 10:02:36;;;;;;;15.68;8.85;;;;;;;13.73;55.65;92372.69;5049391;28;20025;-41
2022/02/22 10:05:12;;;;;;;8.13;6.75;;;;;;;14.14;53.46;92366.34;5048963;28;20018;-42
2022/02/22 10:08:04;;;;;;;14.63;8.90;;;;;;;13.67;53.75;92362.66;5049380;28;20029;-41
2022/02/22 10:10:36;;;;;;;4.80;3.70;;;;;;;13.57;53.87;92350.16;5045305;28;20041;-41
2022/02/22 10:13:01;;;;;;;4.22;3.58;;;;;;;14.25;51.87;92337.88;5049185;28;20103;-41
2022/02/22 10:15:27;;;;;;;3.65;2.30;;;;;;;14.64;50.86;92348.63;5048976;28;20063;-42
2022/02/22 10:17:52;;;;;;;3.97;2.97;;;;;;;14.61;50.17;92356.13;5049024;28;20055;-42
2022/02/22 10:20:18;;;;;;;2.75;2.47;;;;;;;14.25;50.52;92356.63;5049495;28;20039;-41
2022/02/22 10:22:46;;;;;;;5.93;4.10;;;;;;;14.17;50.85;92356.09;5048693;28;20033;-41
2022/02/22 10:25:12;;;;;;;3.20;2.40;;;;;;;15.42;48.57;92358.91;5049044;28;20039;-41
2022/02/22 10:27:52;;;;;;;2.53;2.33;;;;;;;16.35;45.27;92356.59;5048668;28;20049;-42
2022/02/22 10:33:28;;;;;;;1.63;1.45;;;;;;;17.52;42.35;92351.00;5047279;28;20132;-42
2022/02/22 10:36:04;;;;;;;1.55;1.45;;;;;;;17.79;41.01;92359.34;5048731;28;20459;-41
2022/02/22 10:38:32;;;;;;;1.52;1.30;;;;;;;17.81;40.47;92370.59;5048992;28;20032;-42
2022/02/22 10:41:15;;;;;;;2.03;1.85;;;;;;;18.32;38.48;92368.94;5047783;27;20081;-42
2022/02/22 10:43:57;;;;;;;1.58;1.48;;;;;;;17.49;38.68;92375.25;5048489;28;20033;-41
2022/02/22 10:46:25;;;;;;;19.30;8.75;;;;;;;16.30;40.20;92373.69;5048625;28;20025;-41
2022/02/22 10:48:59;;;;;;;2.20;1.80;;;;;;;15.85;42.08;92390.66;5048634;28;20029;-41
2022/02/22 10:51:32;;;;;;;1.70;1.58;;;;;;;15.65;42.44;92391.56;5048678;28;20116;-41
2022/02/22 10:53:57;;;;;;;1.00;0.95;;;;;;;15.22;43.41;92374.41;5048525;28;20478;-41
2022/02/22 10:56:23;;;;;;;1.83;1.60;;;;;;;14.54;43.93;92384.84;5047013;28;20072;-42
2022/02/22 10:58:48;;;;;;;1.50;1.40;;;;;;;15.24;43.63;92387.69;5048451;28;20029;-41
2022/02/22 11:01:16;;;;;;;1.40;1.30;;;;;;;15.43;42.54;92391.00;5048126;28;20414;-41
2022/02/22 11:03:45;;;;;;;2.20;2.00;;;;;;;15.16;43.08;92383.09;5048433;28;20184;-41
2022/02/22 11:06:13;;;;;;;5.35;4.40;;;;;;;14.48;43.86;92392.81;5048263;28;20525;-41
2022/02/22 11:08:41;;;;;;;5.65;5.05;;;;;;;13.16;46.94;92371.72;5048432;28;20040;-41
2022/02/22 11:11:11;;;;;;;6.97;5.10;;;;;;;12.73;47.46;92395.78;5047108;28;20037;-41
2022/02/22 11:13:36;;;;;;;11.27;7.30;;;;;;;12.42;47.90;92397.03;5047009;28;20032;-41
2022/02/22 11:16:17;;;;;;;10.30;6.47;;;;;;;11.77;49.04;92394.47;5047935;28;20025;-41
2022/02/22 11:18:43;;;;;;;12.30;6.45;;;;;;;11.47;50.75;92400.53;5047910;28;20128;-41
2022/02/22 11:21:08;;;;;;;9.85;6.13;;;;;;;11.20;51.32;92395.84;5048170;28;20120;-41
2022/02/22 11:23:34;;;;;;;6.85;3.25;;;;;;;10.77;52.51;92404.25;5048111;28;20047;-42
2022/02/22 11:26:05;;;;;;;5.18;3.20;;;;;;;10.85;52.35;92408.38;5047948;28;20021;-41